Time;durP1;ratioP1;P1;durP2;ratioP2;P2;SDS_P1;SDS_P2;PMS_P1;PMS_P2;Temp;Humidity;BMP_temperature;BMP_pressure;BME280_temperature;BME280_humidity;BME280_pressure;Samples;Min_cycle;Max_cycle;Signal;HPM_P1;HPM_P2
2021/06/01 00:01:39;;;;;;;12.02;5.30;;;17.90;99.90;;;;;;5093661;28;20264;-92
2021/06/01 00:04:07;;;;;;;6.60;5.35;;;17.90;99.90;;;;;;5094017;28;20646;-89
2021/06/01 00:06:33;;;;;;;7.20;4.95;;;17.90;99.90;;;;;;5094020;28;20197;-93
2021/06/01 00:09:00;;;;;;;7.70;5.72;;;17.90;99.90;;;;;;5094223;28;20159;-92
2021/06/01 00:11:25;;;;;;;7.68;5.15;;;17.90;99.90;;;;;;5093839;28;20245;-93
2021/06/01 00:13:51;;;;;;;5.35;4.85;;;17.90;99.90;;;;;;5094202;28;20262;-92
2021/06/01 00:16:18;;;;;;;8.63;5.90;;;17.90;99.90;;;;;;5093890;28;20174;-93
2021/06/01 00:18:44;;;;;;;6.80;5.68;;;18.00;99.90;;;;;;5092896;28;20235;-93
2021/06/01 00:21:11;;;;;;;6.20;5.40;;;18.00;99.90;;;;;;5094083;28;20162;-92
2021/06/01 00:23:37;;;;;;;6.13;5.57;;;18.00;99.90;;;;;;5093934;28;20225;-93
2021/06/01 00:26:05;;;;;;;9.82;6.18;;;17.90;99.90;;;;;;5094080;28;20257;-92
2021/06/01 00:28:31;;;;;;;8.63;5.68;;;17.80;99.90;;;;;;5094303;28;20200;-92
2021/06/01 00:30:57;;;;;;;6.72;5.95;;;17.60;99.90;;;;;;5093853;28;20162;-93
2021/06/01 00:33:23;;;;;;;9.93;6.53;;;17.70;99.90;;;;;;5093724;28;20174;-92
2021/06/01 00:35:49;;;;;;;9.65;7.13;;;17.70;99.90;;;;;;5093503;28;20163;-92
2021/06/01 00:38:14;;;;;;;8.45;6.00;;;17.60;99.90;;;;;;5092793;28;20167;-91
2021/06/01 00:40:40;;;;;;;8.95;5.80;;;17.60;99.90;;;;;;5095107;28;20299;-86
2021/06/01 00:43:06;;;;;;;9.65;6.13;;;17.60;99.90;;;;;;5097102;28;20174;-86
2021/06/01 00:45:31;;;;;;;6.30;5.20;;;17.70;99.90;;;;;;5095493;28;20178;-86
2021/06/01 00:47:57;;;;;;;7.47;5.70;;;17.80;99.90;;;;;;5096846;28;20166;-86
2021/06/01 00:50:28;;;;;;;6.60;5.65;;;17.70;99.90;;;;;;5078338;28;20176;-86
2021/06/01 00:52:55;;;;;;;6.20;5.60;;;17.80;99.90;;;;;;5096570;28;20174;-87
2021/06/01 00:55:21;;;;;;;7.10;6.47;;;17.70;99.90;;;;;;5096414;28;20180;-86
2021/06/01 00:57:47;;;;;;;6.18;5.57;;;17.70;99.90;;;;;;5095357;28;20173;-86
2021/06/01 01:00:29;;;;;;;10.80;5.55;;;17.70;99.90;;;;;;5096130;28;20253;-85
2021/06/01 01:02:56;;;;;;;8.00;5.28;;;17.70;99.90;;;;;;5096903;28;20181;-84
2021/06/01 01:05:25;;;;;;;13.27;5.47;;;17.60;99.90;;;;;;5096703;28;20251;-86
2021/06/01 01:08:07;;;;;;;6.85;6.18;;;17.50;99.90;;;;;;5096233;28;20611;-86
2021/06/01 01:10:36;;;;;;;8.15;6.35;;;17.30;99.90;;;;;;5094645;28;20162;-86
2021/06/01 01:13:05;;;;;;;6.95;6.32;;;17.10;99.90;;;;;;5096322;28;20185;-86
2021/06/01 01:15:34;;;;;;;8.82;6.95;;;17.10;99.90;;;;;;5096411;28;20233;-87
2021/06/01 01:18:04;;;;;;;7.75;6.75;;;16.90;99.90;;;;;;5096126;28;20623;-86
2021/06/01 01:20:39;;;;;;;7.22;6.45;;;16.80;99.90;;;;;;5096021;28;20716;-86
2021/06/01 01:23:19;;;;;;;7.15;6.22;;;16.70;99.90;;;;;;5096085;28;20197;-86
2021/06/01 01:26:12;;;;;;;6.47;5.85;;;16.60;99.90;;;;;;5096160;28;20192;-86
2021/06/01 01:28:54;;;;;;;7.65;6.22;;;16.50;99.90;;;;;;5114211;28;20201;-86
2021/06/01 01:31:25;;;;;;;6.78;6.18;;;16.40;99.90;;;;;;5107008;28;20178;-85
2021/06/01 01:33:52;;;;;;;7.82;6.95;;;16.40;99.90;;;;;;5096043;28;20162;-86
2021/06/01 01:36:19;;;;;;;9.88;6.22;;;16.40;99.90;;;;;;5096042;28;20170;-86
2021/06/01 01:38:45;;;;;;;7.55;6.78;;;16.40;99.90;;;;;;5094700;28;20169;-85
2021/06/01 01:41:14;;;;;;;6.75;6.05;;;16.40;99.90;;;;;;5094196;28;20170;-86
2021/06/01 01:43:46;;;;;;;6.85;6.22;;;16.30;99.90;;;;;;5095086;28;20241;-87
2021/06/01 01:46:15;;;;;;;9.10;6.25;;;16.20;99.90;;;;;;5095975;28;20260;-86
2021/06/01 01:48:59;;;;;;;12.40;6.32;;;16.10;99.90;;;;;;5095719;28;20162;-86
2021/06/01 01:51:45;;;;;;;15.65;5.97;;;16.10;99.90;;;;;;5095033;28;20162;-86
2021/06/01 01:54:18;;;;;;;7.55;6.20;;;16.00;99.90;;;;;;5095836;28;20606;-86
2021/06/01 01:56:51;;;;;;;6.53;5.88;;;16.00;99.90;;;;;;5093766;28;20567;-86
2021/06/01 01:59:21;;;;;;;9.68;6.60;;;15.90;99.90;;;;;;5095659;28;20151;-86
2021/06/01 02:01:49;;;;;;;7.65;6.22;;;15.90;99.90;;;;;;5093689;28;20585;-86
2021/06/01 02:04:26;;;;;;;13.07;6.75;;;15.90;99.90;;;;;;5095106;28;20197;-86
2021/06/01 02:06:53;;;;;;;6.93;6.32;;;15.80;99.90;;;;;;5095337;28;20166;-86
2021/06/01 02:09:19;;;;;;;9.88;6.75;;;15.80;99.90;;;;;;5093966;28;20178;-86
2021/06/01 02:11:45;;;;;;;6.53;5.93;;;15.70;99.90;;;;;;5093729;28;20253;-85
2021/06/01 02:14:11;;;;;;;12.32;6.22;;;15.70;99.90;;;;;;5094020;28;20251;-85
2021/06/01 02:16:39;;;;;;;10.25;7.10;;;15.70;99.90;;;;;;5095225;28;20181;-86
2021/06/01 02:19:06;;;;;;;7.05;6.45;;;15.60;99.90;;;;;;5094949;28;20189;-86
2021/06/01 02:24:29;;;;;;;10.32;6.57;;;15.60;99.90;;;;;;5094456;28;20201;-86
2021/06/01 02:26:56;;;;;;;7.38;6.68;;;15.50;99.90;;;;;;5093115;28;20200;-86
2021/06/01 02:29:33;;;;;;;10.63;7.00;;;15.50;99.90;;;;;;5093778;28;20172;-85
2021/06/01 02:32:02;;;;;;;10.98;6.07;;;15.50;99.90;;;;;;5095031;28;20174;-85
2021/06/01 02:34:29;;;;;;;8.40;7.55;;;15.50;99.90;;;;;;5093674;28;20193;-86
2021/06/01 02:36:55;;;;;;;7.53;6.88;;;15.50;99.90;;;;;;5094685;28;20166;-85
2021/06/01 02:39:22;;;;;;;6.45;5.95;;;15.50;99.90;;;;;;5093616;28;20210;-86
2021/06/01 02:41:49;;;;;;;8.45;7.10;;;15.40;99.90;;;;;;5094182;28;20170;-86
2021/06/01 02:44:15;;;;;;;8.23;6.20;;;15.40;99.90;;;;;;5093378;28;20201;-87
2021/06/01 02:46:42;;;;;;;11.32;7.00;;;15.40;99.90;;;;;;5094402;28;20174;-86
2021/06/01 02:49:09;;;;;;;6.80;6.10;;;15.20;99.90;;;;;;5094418;28;20162;-86
2021/06/01 02:51:37;;;;;;;9.10;7.15;;;15.20;99.90;;;;;;5094221;28;20181;-84
2021/06/01 02:54:06;;;;;;;7.82;7.03;;;15.10;99.90;;;;;;5094508;28;20170;-86
2021/06/01 02:56:32;;;;;;;7.22;6.63;;;15.10;99.90;;;;;;5093228;28;20197;-87
2021/06/01 02:58:58;;;;;;;8.73;7.25;;;15.10;99.90;;;;;;5093666;28;20178;-86
2021/06/01 03:01:25;;;;;;;11.10;7.22;;;15.00;99.90;;;;;;5092067;28;20242;-85
2021/06/01 03:03:54;;;;;;;8.50;6.47;;;15.00;99.90;;;;;;5094055;28;20281;-86
2021/06/01 03:06:25;;;;;;;10.13;7.70;;;15.00;99.90;;;;;;5093224;28;20170;-87
2021/06/01 03:08:50;;;;;;;8.25;7.07;;;15.00;99.90;;;;;;5095911;28;20755;-86
2021/06/01 03:11:19;;;;;;;19.10;7.93;;;15.00;99.90;;;;;;5097524;28;20193;-86
2021/06/01 03:13:45;;;;;;;12.23;7.07;;;15.00;99.90;;;;;;5097920;28;20674;-86
2021/06/01 03:16:12;;;;;;;7.88;6.32;;;14.90;99.90;;;;;;5108478;28;20166;-86
2021/06/01 03:18:37;;;;;;;13.80;7.35;;;14.80;99.90;;;;;;5112237;28;20170;-85
2021/06/01 03:21:04;;;;;;;13.75;7.32;;;14.70;99.90;;;;;;5110534;28;20642;-86
2021/06/01 03:23:30;;;;;;;9.02;6.90;;;14.70;99.90;;;;;;5110785;28;20185;-86
2021/06/01 03:25:56;;;;;;;7.35;6.70;;;14.80;99.90;;;;;;5097541;28;20213;-86
2021/06/01 03:28:21;;;;;;;8.13;7.32;;;14.70;99.90;;;;;;5094207;28;20514;-86
2021/06/01 03:30:49;;;;;;;8.75;7.20;;;14.70;99.90;;;;;;5093336;28;20705;-86
2021/06/01 03:33:15;;;;;;;10.00;7.00;;;14.70;99.90;;;;;;5093776;28;20171;-85
2021/06/01 03:35:41;;;;;;;7.03;6.25;;;14.70;99.90;;;;;;5109353;28;20608;-86
2021/06/01 03:38:07;;;;;;;7.05;5.90;;;14.60;99.90;;;;;;5093077;28;20205;-86
2021/06/01 03:40:33;;;;;;;7.00;5.60;;;14.60;99.90;;;;;;5093031;28;20170;-86
2021/06/01 03:42:59;;;;;;;9.02;6.60;;;14.60;99.90;;;;;;5094200;28;20173;-86
2021/06/01 03:45:26;;;;;;;10.70;6.40;;;14.60;99.90;;;;;;5093804;28;20186;-86
2021/06/01 03:47:52;;;;;;;7.45;6.82;;;14.50;99.90;;;;;;5093999;28;20158;-86
2021/06/01 03:50:18;;;;;;;12.60;7.32;;;14.60;99.90;;;;;;5093850;28;20174;-86
2021/06/01 03:52:45;;;;;;;8.23;6.40;;;14.50;99.90;;;;;;5093524;28;20211;-85
2021/06/01 03:55:11;;;;;;;8.27;6.40;;;14.60;99.90;;;;;;5092247;28;20189;-86
2021/06/01 03:57:37;;;;;;;11.13;6.97;;;14.60;99.90;;;;;;5092537;28;20648;-86
2021/06/01 04:00:06;;;;;;;7.65;6.35;;;14.50;99.90;;;;;;5092758;28;20249;-85
2021/06/01 04:02:32;;;;;;;11.40;6.53;;;14.60;99.90;;;;;;5092301;28;20274;-86
2021/06/01 04:04:57;;;;;;;9.30;7.47;;;14.60;99.90;;;;;;5093502;28;20206;-86
2021/06/01 04:07:23;;;;;;;11.05;7.18;;;14.60;99.90;;;;;;5093877;28;20219;-86
2021/06/01 04:09:48;;;;;;;6.72;6.15;;;14.60;99.90;;;;;;5093792;28;20227;-86
2021/06/01 04:12:14;;;;;;;9.60;6.18;;;14.60;99.90;;;;;;5093589;28;20215;-85
2021/06/01 04:14:40;;;;;;;7.18;6.40;;;14.70;99.90;;;;;;5096865;28;20598;-86
2021/06/01 04:17:05;;;;;;;8.52;6.40;;;14.70;99.90;;;;;;5097244;28;20549;-86
2021/06/01 04:19:32;;;;;;;8.77;6.88;;;14.70;99.90;;;;;;5096506;28;20170;-86
2021/06/01 04:21:59;;;;;;;7.03;6.30;;;14.70;99.90;;;;;;5097421;28;20261;-86
2021/06/01 04:24:27;;;;;;;11.30;7.03;;;14.60;99.90;;;;;;5097167;28;20186;-86
2021/06/01 04:26:56;;;;;;;7.03;6.43;;;14.70;99.90;;;;;;5096270;28;20220;-85
2021/06/01 04:29:23;;;;;;;13.63;6.65;;;14.80;99.90;;;;;;5096998;28;20578;-86
2021/06/01 04:31:49;;;;;;;12.35;7.00;;;14.70;99.90;;;;;;5096890;28;20170;-87
2021/06/01 04:34:14;;;;;;;10.32;6.88;;;14.80;99.90;;;;;;5096932;28;20638;-85
2021/06/01 04:36:40;;;;;;;8.20;5.63;;;14.90;99.90;;;;;;5096958;28;20178;-85
2021/06/01 04:39:06;;;;;;;12.40;6.78;;;15.10;99.90;;;;;;5097029;28;20178;-86
2021/06/01 04:41:31;;;;;;;8.68;6.15;;;15.40;99.90;;;;;;5097146;28;20170;-86
2021/06/01 04:43:57;;;;;;;12.27;6.53;;;15.70;99.90;;;;;;5078987;28;20182;-87
2021/06/01 04:46:23;;;;;;;9.48;6.07;;;16.10;99.90;;;;;;5096708;28;20447;-87
2021/06/01 04:48:48;;;;;;;9.55;4.90;;;17.30;99.90;;;;;;5097039;28;20606;-84
2021/06/01 04:51:17;;;;;;;13.25;5.03;;;18.70;99.90;;;;;;5096451;28;20166;-86
2021/06/01 04:53:48;;;;;;;11.95;5.53;;;20.20;99.90;;;;;;5095372;28;20190;-86
2021/06/01 04:56:14;;;;;;;5.03;3.92;;;21.60;99.90;;;;;;5096765;28;20170;-86
2021/06/01 04:58:40;;;;;;;4.68;4.20;;;22.70;99.90;;;;;;5095066;28;20188;-86
2021/06/01 05:01:06;;;;;;;5.15;4.20;;;23.60;99.90;;;;;;5096223;28;20194;-85
2021/06/01 05:03:32;;;;;;;7.90;4.35;;;24.30;99.90;;;;;;5096174;28;20170;-86
2021/06/01 05:05:58;;;;;;;8.15;3.40;;;24.80;99.90;;;;;;5095227;28;20262;-86
2021/06/01 05:08:24;;;;;;;4.03;3.60;;;25.50;99.90;;;;;;5096329;28;20162;-86
2021/06/01 05:10:51;;;;;;;4.55;4.05;;;26.30;99.90;;;;;;5096186;28;20166;-86
2021/06/01 05:13:16;;;;;;;10.05;3.35;;;27.00;99.90;;;;;;5095616;28;20162;-85
2021/06/01 05:15:43;;;;;;;5.97;3.45;;;27.60;99.90;;;;;;5095940;28;20189;-84
2021/06/01 05:18:09;;;;;;;3.60;3.30;;;28.20;99.10;;;;;;5095598;28;20695;-84
2021/06/01 05:20:35;;;;;;;7.78;3.53;;;28.80;97.90;;;;;;5095949;28;20174;-84
2021/06/01 05:23:00;;;;;;;3.80;2.80;;;29.40;96.90;;;;;;5095944;28;20182;-84
2021/06/01 05:25:26;;;;;;;7.35;3.22;;;29.90;95.70;;;;;;5094476;28;20170;-84
2021/06/01 05:27:52;;;;;;;6.57;3.38;;;30.40;94.00;;;;;;5095822;28;20185;-84
2021/06/01 05:30:23;;;;;;;3.30;3.00;;;31.00;94.00;;;;;;5095758;28;20166;-84
2021/06/01 05:35:38;;;;;;;4.72;2.70;;;32.30;91.40;;;;;;5095162;28;20735;-86
2021/06/01 05:38:03;;;;;;;3.25;2.53;;;32.60;91.30;;;;;;5094986;28;20181;-84
2021/06/01 05:40:29;;;;;;;4.07;2.72;;;33.20;90.40;;;;;;5093382;28;20196;-83
2021/06/01 05:42:55;;;;;;;2.60;2.40;;;33.70;89.00;;;;;;5095387;28;20183;-84
2021/06/01 05:45:21;;;;;;;2.85;2.55;;;34.10;86.60;;;;;;5095124;28;20181;-84
2021/06/01 05:47:46;;;;;;;7.70;3.10;;;34.60;85.50;;;;;;5095291;28;20173;-84
2021/06/01 05:50:12;;;;;;;4.53;2.83;;;35.10;84.40;;;;;;5095060;28;20178;-84
2021/06/01 05:52:38;;;;;;;9.15;2.80;;;35.50;81.20;;;;;;5095205;28;20165;-84
2021/06/01 05:55:05;;;;;;;5.20;2.90;;;36.10;80.00;;;;;;5095070;28;20196;-84
2021/06/01 05:57:31;;;;;;;6.13;2.40;;;36.70;79.60;;;;;;5094758;28;20201;-83
2021/06/01 05:59:57;;;;;;;3.90;2.33;;;37.10;76.30;;;;;;5094508;28;20212;-84
2021/06/01 06:02:23;;;;;;;4.18;2.80;;;37.40;76.80;;;;;;5095180;28;20186;-84
2021/06/01 06:04:49;;;;;;;12.00;3.00;;;37.70;76.10;;;;;;5095024;28;20173;-84
2021/06/01 06:07:14;;;;;;;4.10;2.53;;;38.20;74.40;;;;;;5094229;28;20197;-84
2021/06/01 06:09:40;;;;;;;2.78;2.47;;;38.70;69.90;;;;;;5094742;28;20180;-84
2021/06/01 06:12:06;;;;;;;4.90;2.25;;;39.10;67.90;;;;;;5094717;28;20177;-82
2021/06/01 06:14:32;;;;;;;3.97;1.95;;;39.00;63.70;;;;;;5094386;28;20197;-82
2021/06/01 06:17:07;;;;;;;2.67;1.67;;;39.30;62.00;;;;;;5094445;28;20173;-83
2021/06/01 06:19:37;;;;;;;5.05;1.90;;;39.00;59.80;;;;;;5080112;28;20164;-83
2021/06/01 06:22:03;;;;;;;4.10;1.50;;;39.40;59.10;;;;;;5094612;28;20158;-82
2021/06/01 06:24:30;;;;;;;1.30;1.20;;;38.70;58.20;;;;;;5094350;28;20192;-84
2021/06/01 06:26:56;;;;;;;2.50;1.73;;;38.50;57.90;;;;;;5094482;28;20617;-84
2021/06/01 06:29:21;;;;;;;5.32;1.20;;;38.60;57.80;;;;;;5094288;28;20174;-83
2021/06/01 06:31:47;;;;;;;4.22;1.50;;;38.60;58.00;;;;;;5094531;28;20575;-83
2021/06/01 06:34:12;;;;;;;1.88;1.50;;;38.80;55.80;;;;;;5094392;28;20173;-83
2021/06/01 06:36:38;;;;;;;2.17;1.45;;;38.90;57.30;;;;;;5094421;28;20679;-83
2021/06/01 06:39:06;;;;;;;2.70;1.63;;;39.10;54.40;;;;;;5094218;28;20253;-83
2021/06/01 06:41:31;;;;;;;5.20;1.67;;;37.90;54.40;;;;;;5094664;28;20165;-83
2021/06/01 06:43:57;;;;;;;2.80;1.70;;;37.40;55.70;;;;;;5094303;28;20594;-83
2021/06/01 06:46:26;;;;;;;2.28;1.40;;;37.80;55.30;;;;;;5094066;28;20177;-83
2021/06/01 06:48:52;;;;;;;2.05;1.45;;;37.90;54.70;;;;;;5093512;28;20534;-83
2021/06/01 06:51:18;;;;;;;5.15;1.58;;;38.40;56.70;;;;;;5094233;28;20161;-83
2021/06/01 06:56:15;;;;;;;2.35;1.30;;;38.00;54.50;;;;;;5094157;28;20190;-83
2021/06/01 06:58:41;;;;;;;1.30;1.20;;;37.10;54.70;;;;;;5093800;28;20197;-83
2021/06/01 07:01:11;;;;;;;5.85;1.33;;;36.60;55.40;;;;;;5093547;28;20687;-83
2021/06/01 07:03:37;;;;;;;10.10;1.52;;;36.90;56.50;;;;;;5093705;28;20150;-83
2021/06/01 07:06:04;;;;;;;2.17;1.20;;;37.50;55.70;;;;;;5093857;28;20185;-84
2021/06/01 07:08:30;;;;;;;3.72;1.50;;;36.90;54.90;;;;;;5092389;28;20585;-83
2021/06/01 07:10:56;;;;;;;3.97;1.58;;;37.40;56.00;;;;;;5093516;28;20173;-81
2021/06/01 07:13:31;;;;;;;1.50;1.23;;;37.80;54.20;;;;;;5091132;28;20214;-85
2021/06/01 07:15:57;;;;;;;4.28;1.58;;;37.10;54.00;;;;;;5093793;28;20214;-83
2021/06/01 07:18:22;;;;;;;1.48;1.20;;;37.00;54.40;;;;;;5093667;28;20177;-82
2021/06/01 07:20:48;;;;;;;2.80;1.00;;;37.10;55.50;;;;;;5092303;28;20184;-83
2021/06/01 07:23:14;;;;;;;1.95;1.35;;;37.30;54.20;;;;;;5093723;28;20568;-83
2021/06/01 07:25:40;;;;;;;6.30;1.75;;;37.50;55.40;;;;;;5093713;28;20220;-82
2021/06/01 07:28:06;;;;;;;4.38;1.20;;;37.20;52.80;;;;;;5093135;28;20555;-81
2021/06/01 07:30:31;;;;;;;2.92;1.10;;;36.90;54.10;;;;;;5093330;28;20214;-83
2021/06/01 07:32:59;;;;;;;4.35;1.27;;;36.80;53.90;;;;;;5093611;28;20208;-82
2021/06/01 07:35:24;;;;;;;1.30;1.10;;;36.40;53.30;;;;;;5093595;28;20173;-83
2021/06/01 07:37:51;;;;;;;1.10;1.08;;;36.20;53.90;;;;;;5093058;28;20229;-82
2021/06/01 07:40:17;;;;;;;3.33;1.20;;;35.90;54.30;;;;;;5093587;28;20166;-81
2021/06/01 07:42:43;;;;;;;1.50;1.40;;;35.90;54.20;;;;;;5093429;28;20248;-79
2021/06/01 07:45:11;;;;;;;6.70;1.23;;;36.50;54.10;;;;;;5094175;28;20194;-81
2021/06/01 07:47:37;;;;;;;1.83;1.00;;;37.90;55.40;;;;;;5093569;28;20205;-81
2021/06/01 07:50:04;;;;;;;5.00;1.33;;;36.70;54.70;;;;;;5118019;28;20169;-80
2021/06/01 07:52:30;;;;;;;3.63;1.08;;;37.30;54.80;;;;;;5117520;28;20160;-80
2021/06/01 07:54:56;;;;;;;1.63;1.08;;;38.80;53.80;;;;;;5097527;28;20181;-80
2021/06/01 07:57:22;;;;;;;1.20;1.10;;;40.20;53.10;;;;;;5097500;28;20166;-81
2021/06/01 07:59:47;;;;;;;1.35;1.10;;;40.80;50.90;;;;;;5096778;28;20633;-81
2021/06/01 08:02:13;;;;;;;2.25;1.10;;;37.60;52.00;;;;;;5097318;28;20181;-83
2021/06/01 08:04:39;;;;;;;3.00;0.90;;;37.20;53.30;;;;;;5093939;28;20194;-80
2021/06/01 08:07:08;;;;;;;1.23;0.90;;;38.00;51.60;;;;;;5088200;28;20184;-80
2021/06/01 08:09:34;;;;;;;4.88;1.20;;;37.00;52.30;;;;;;5096896;28;20166;-79
2021/06/01 08:11:59;;;;;;;1.25;1.00;;;37.80;51.80;;;;;;5097067;28;20223;-84
2021/06/01 08:14:25;;;;;;;1.30;1.10;;;37.80;51.20;;;;;;5078580;28;20254;-85
2021/06/01 08:16:51;;;;;;;6.25;1.48;;;34.70;55.00;;;;;;5096338;28;20176;-83
2021/06/01 08:19:21;;;;;;;1.35;1.00;;;36.00;54.10;;;;;;5096878;28;20558;-86
2021/06/01 08:24:15;;;;;;;14.10;1.20;;;37.10;52.40;;;;;;5096945;28;20205;-85
2021/06/01 08:26:40;;;;;;;3.17;1.20;;;36.30;52.50;;;;;;5096422;28;20276;-86
2021/06/01 08:29:07;;;;;;;2.08;1.10;;;36.00;52.20;;;;;;5094737;28;20574;-82
2021/06/01 08:31:33;;;;;;;3.50;1.00;;;34.60;54.50;;;;;;5096840;28;20214;-82
2021/06/01 08:33:59;;;;;;;3.83;1.08;;;36.80;52.70;;;;;;5096195;28;20169;-82
2021/06/01 08:36:25;;;;;;;1.50;1.33;;;35.40;53.20;;;;;;5095989;28;20174;-82
2021/06/01 08:38:52;;;;;;;2.22;1.10;;;36.20;52.10;;;;;;5096341;28;20173;-82
2021/06/01 08:41:17;;;;;;;0.90;0.90;;;36.70;52.30;;;;;;5096270;28;20210;-83
2021/06/01 08:43:43;;;;;;;4.28;1.10;;;36.20;51.50;;;;;;5096146;28;20270;-82
2021/06/01 08:46:10;;;;;;;5.25;1.30;;;35.90;50.70;;;;;;5095871;28;20183;-81
2021/06/01 08:48:37;;;;;;;3.35;1.00;;;35.30;53.60;;;;;;5095762;28;20260;-82
2021/06/01 08:51:03;;;;;;;1.67;1.20;;;35.70;52.20;;;;;;5096596;28;20165;-81
2021/06/01 08:53:29;;;;;;;5.10;0.98;;;33.60;53.30;;;;;;5094743;28;20172;-82
2021/06/01 08:55:55;;;;;;;4.32;1.10;;;35.90;52.10;;;;;;5095965;28;20170;-84
2021/06/01 08:58:22;;;;;;;1.85;1.05;;;36.10;51.70;;;;;;5094880;28;20166;-86
2021/06/01 09:00:48;;;;;;;4.20;1.20;;;35.40;51.60;;;;;;5094590;28;20235;-84
2021/06/01 09:03:21;;;;;;;1.70;1.10;;;36.50;52.00;;;;;;5094434;28;20248;-83
2021/06/01 09:06:20;;;;;;;1.02;1.02;;;37.00;50.40;;;;;;5093962;28;20193;-84
2021/06/01 09:09:22;;;;;;;9.00;1.20;;;37.00;51.90;;;;;;5090878;28;20162;-85
2021/06/01 09:22:33;;;;;;;5.30;1.20;;;38.80;50.70;;;;;;5090337;28;20262;-85
2021/06/01 09:25:05;;;;;;;4.15;1.10;;;37.80;52.10;;;;;;5096013;28;20201;-86
2021/06/01 09:27:45;;;;;;;2.95;1.05;;;38.20;50.80;;;;;;5111305;28;20256;-84
2021/06/01 09:30:31;;;;;;;1.52;1.33;;;38.90;52.80;;;;;;5094907;28;20172;-83
2021/06/01 09:32:56;;;;;;;6.32;1.15;;;39.90;50.00;;;;;;5095367;28;20178;-83
2021/06/01 09:35:38;;;;;;;2.63;1.10;;;40.80;51.30;;;;;;5095026;28;20181;-83
2021/06/01 09:38:04;;;;;;;2.55;1.00;;;40.50;49.20;;;;;;5094840;28;20170;-82
2021/06/01 09:40:30;;;;;;;9.88;1.48;;;41.30;49.20;;;;;;5095132;28;20177;-84
2021/06/01 09:42:55;;;;;;;1.10;1.00;;;39.50;47.50;;;;;;5094680;28;20639;-84
2021/06/01 09:45:23;;;;;;;1.98;1.10;;;39.00;49.60;;;;;;5093037;28;20266;-84
2021/06/01 09:47:59;;;;;;;1.00;0.90;;;39.50;48.40;;;;;;5094966;28;20180;-83
2021/06/01 09:50:39;;;;;;;2.13;0.90;;;39.60;47.50;;;;;;5095525;28;20157;-85
2021/06/01 09:53:18;;;;;;;1.15;1.05;;;38.70;48.20;;;;;;5095169;28;20223;-84
2021/06/01 09:55:49;;;;;;;2.72;1.13;;;37.40;49.00;;;;;;5095292;28;20207;-84
2021/06/01 09:58:24;;;;;;;3.88;1.10;;;37.40;50.20;;;;;;5094805;28;20169;-87
2021/06/01 10:00:50;;;;;;;5.53;1.08;;;35.80;51.60;;;;;;5095265;28;20242;-86
2021/06/01 10:03:21;;;;;;;3.95;1.10;;;33.00;51.80;;;;;;5095055;28;20200;-86
2021/06/01 10:05:51;;;;;;;1.45;1.00;;;33.40;53.90;;;;;;5095323;28;20197;-86
2021/06/01 10:08:19;;;;;;;2.25;1.42;;;34.50;52.00;;;;;;5094784;28;20178;-84
2021/06/01 10:10:49;;;;;;;2.45;1.35;;;35.10;52.00;;;;;;5094290;28;20245;-85
2021/06/01 10:13:15;;;;;;;2.97;1.15;;;35.90;50.30;;;;;;5094858;28;20165;-85
2021/06/01 10:15:40;;;;;;;7.43;1.30;;;36.90;50.90;;;;;;5094634;28;20170;-88
2021/06/01 10:18:09;;;;;;;4.25;1.15;;;36.00;50.80;;;;;;5094631;28;20577;-85
2021/06/01 10:20:37;;;;;;;2.50;1.40;;;35.50;52.70;;;;;;5093759;28;20501;-86
2021/06/01 10:23:04;;;;;;;8.00;1.38;;;34.20;53.90;;;;;;5093662;28;20192;-87
2021/06/01 10:25:30;;;;;;;4.40;1.75;;;33.40;53.70;;;;;;5094912;28;20189;-88
2021/06/01 10:28:02;;;;;;;1.10;1.00;;;33.60;56.10;;;;;;5094245;28;20173;-86
2021/06/01 10:30:31;;;;;;;1.55;1.02;;;37.10;54.10;;;;;;5093631;28;20500;-86
2021/06/01 10:33:02;;;;;;;1.88;1.08;;;35.90;53.20;;;;;;5094581;28;20196;-86
2021/06/01 10:35:36;;;;;;;2.20;1.10;;;36.50;51.80;;;;;;5094597;28;20212;-87
2021/06/01 10:44:37;;;;;;;4.32;1.20;;;36.80;51.40;;;;;;5094681;28;20191;-90
2021/06/01 10:52:21;;;;;;;6.03;1.08;;;36.40;53.00;;;;;;5094547;28;20158;-86
2021/06/01 10:54:48;;;;;;;4.82;1.40;;;34.20;51.80;;;;;;5094699;28;20647;-91
2021/06/01 10:57:17;;;;;;;2.78;1.67;;;35.00;53.20;;;;;;5094088;28;20610;-89
2021/06/01 10:59:51;;;;;;;2.28;1.48;;;31.90;55.30;;;;;;5110168;28;20169;-88
2021/06/01 11:02:17;;;;;;;2.03;1.35;;;30.70;57.50;;;;;;5114390;28;20184;-87
2021/06/01 11:04:59;;;;;;;5.63;1.15;;;30.40;56.60;;;;;;5114598;28;20717;-86
2021/06/01 11:07:40;;;;;;;3.10;1.25;;;31.90;56.00;;;;;;5108949;28;20219;-83
2021/06/01 11:10:06;;;;;;;4.00;1.35;;;34.40;54.00;;;;;;5092697;28;20166;-86
2021/06/01 11:12:40;;;;;;;5.38;1.30;;;34.80;54.30;;;;;;5093872;28;20169;-88
2021/06/01 11:15:28;;;;;;;6.88;1.48;;;36.80;53.80;;;;;;5093866;28;20177;-88
2021/06/01 11:18:13;;;;;;;7.13;1.30;;;35.50;51.80;;;;;;5072989;28;20174;-88
2021/06/01 11:21:01;;;;;;;3.17;1.20;;;33.90;54.80;;;;;;5074346;28;20154;-89
2021/06/01 11:23:42;;;;;;;4.78;1.33;;;32.80;56.70;;;;;;5090580;28;20170;-88
2021/06/01 11:32:48;;;;;;;1.50;1.40;;;31.60;56.70;;;;;;5095233;28;20159;-89
2021/06/01 11:34:36;;;;;;;2.05;1.75;;;32.70;56.40;;;;;;5094308;28;20195;-90
2021/06/01 11:37:02;;;;;;;2.20;1.33;;;33.20;55.80;;;;;;5094737;28;20185;-87
2021/06/01 11:45:07;;;;;;;4.80;1.30;;;33.00;55.60;;;;;;5095328;28;20196;-89
2021/06/01 11:47:54;;;;;;;2.33;1.30;;;31.60;55.60;;;;;;5094224;28;20638;-87
2021/06/01 11:53:15;;;;;;;1.45;1.30;;;33.70;56.50;;;;;;5087997;28;20185;-86
2021/06/01 11:55:45;;;;;;;1.40;1.30;;;33.80;55.30;;;;;;5092505;28;20185;-87
2021/06/01 12:04:13;;;;;;;1.95;1.50;;;34.20;55.30;;;;;;5093430;28;20165;-86
2021/06/01 12:20:57;;;;;;;2.42;1.45;;;30.10;59.10;;;;;;5092417;28;20169;-87
2021/06/01 12:23:28;;;;;;;1.67;1.13;;;28.80;62.10;;;;;;5093300;28;20173;-85
2021/06/01 12:32:07;;;;;;;2.58;1.30;;;26.80;63.20;;;;;;5087657;28;20231;-85
2021/06/01 13:21:04;;;;;;;4.80;1.45;;;25.90;65.40;;;;;;5075346;28;20618;-85
2021/06/01 13:37:37;;;;;;;4.32;1.33;;;25.90;67.10;;;;;;5094861;28;20270;-85
2021/06/01 13:40:36;;;;;;;1.63;1.30;;;26.00;65.10;;;;;;5094996;28;20544;-84
2021/06/01 13:46:11;;;;;;;2.85;1.10;;;26.50;67.50;;;;;;5094380;28;20245;-85
2021/06/01 13:56:17;;;;;;;4.05;1.23;;;25.90;66.20;;;;;;5094881;28;20205;-85
2021/06/01 14:01:35;;;;;;;4.53;1.10;;;26.50;65.10;;;;;;5094888;28;20280;-83
2021/06/01 14:09:53;;;;;;;1.25;1.10;;;26.60;65.70;;;;;;5090989;28;20177;-90
2021/06/01 14:31:20;;;;;;;1.38;1.08;;;26.40;65.30;;;;;;5071369;28;20195;-84
2021/06/01 14:36:54;;;;;;;5.30;1.50;;;26.30;65.80;;;;;;5070074;28;20189;-83
2021/06/01 14:40:32;;;;;;;4.55;1.15;;;26.40;65.60;;;;;;5070276;28;20189;-79
2021/06/01 15:03:45;;;;;;;1.55;1.20;;;26.60;68.00;;;;;;5072416;28;20651;-88
2021/06/01 15:50:46;;;;;;;1.33;1.20;;;26.80;64.20;;;;;;5093949;28;20163;-86
2021/06/01 17:07:37;;;;;;;5.35;2.08;;;26.20;66.60;;;;;;5096920;28;20178;-91
2021/06/01 17:12:48;;;;;;;1.30;1.17;;;25.90;67.90;;;;;;5097316;28;20642;-89
2021/06/01 17:15:17;;;;;;;2.10;1.42;;;26.10;67.00;;;;;;5095846;28;20641;-90
2021/06/01 17:17:54;;;;;;;2.50;1.40;;;26.20;67.40;;;;;;5097200;28;20166;-89
2021/06/01 17:21:01;;;;;;;1.52;1.20;;;26.30;66.60;;;;;;5096689;28;20150;-84
2021/06/01 17:23:49;;;;;;;6.43;1.45;;;26.30;66.00;;;;;;5095471;28;20257;-86
2021/06/01 17:32:04;;;;;;;4.15;1.30;;;26.20;68.50;;;;;;5096317;28;20705;-87
2021/06/01 17:34:55;;;;;;;3.63;1.27;;;26.00;69.70;;;;;;5095883;28;20170;-84
2021/06/01 17:37:21;;;;;;;3.58;1.50;;;25.70;70.10;;;;;;5096311;28;20146;-85
2021/06/01 17:39:48;;;;;;;1.88;1.30;;;25.50;70.60;;;;;;5095351;28;20174;-86
2021/06/01 17:42:17;;;;;;;3.80;1.23;;;25.60;69.90;;;;;;5095589;28;20181;-86
2021/06/01 17:44:46;;;;;;;4.97;1.80;;;25.80;70.30;;;;;;5095914;28;20247;-86
2021/06/01 17:47:17;;;;;;;4.70;1.70;;;26.00;70.00;;;;;;5096103;28;20163;-86
2021/06/01 17:49:48;;;;;;;2.15;1.50;;;26.10;70.50;;;;;;5099529;28;20138;-86
2021/06/01 17:52:14;;;;;;;5.70;1.55;;;26.20;70.60;;;;;;5098758;28;20146;-86
2021/06/01 17:54:43;;;;;;;3.85;1.63;;;26.20;70.90;;;;;;5098686;28;20197;-86
2021/06/01 17:57:09;;;;;;;2.20;1.70;;;25.70;72.70;;;;;;5097453;28;20180;-88
2021/06/01 17:59:35;;;;;;;2.13;1.40;;;25.50;73.40;;;;;;5099052;28;20645;-86
2021/06/01 18:02:00;;;;;;;1.63;1.40;;;25.20;73.80;;;;;;5097525;28;20190;-86
2021/06/01 18:04:26;;;;;;;4.50;1.40;;;25.10;74.50;;;;;;5094822;28;20285;-89
2021/06/01 18:07:17;;;;;;;1.77;1.58;;;25.00;74.00;;;;;;5094499;28;20287;-87
2021/06/01 18:37:33;;;;;;;2.10;1.50;;;24.40;74.30;;;;;;5095035;28;20177;-86
2021/06/01 19:50:48;;;;;;;3.35;1.98;;;22.90;78.70;;;;;;5100416;28;20154;-88
2021/06/01 19:53:15;;;;;;;3.15;1.80;;;22.90;78.60;;;;;;5098654;28;20181;-85
2021/06/01 19:55:41;;;;;;;4.28;2.25;;;22.90;79.40;;;;;;5081802;28;20201;-88
2021/06/01 19:58:07;;;;;;;4.22;1.50;;;22.80;79.40;;;;;;5101890;28;20308;-86